sensor_id;sensor_type;location;lat;lon;timestamp;P1;durP1;ratioP1;P2;durP2;ratioP2
69588;SDS011;56792;50.644;17.984;2024-03-22T00:00:11;20.90;;;12.90;;
69588;SDS011;56792;50.644;17.984;2024-03-22T00:02:42;21.20;;;13.20;;
69588;SDS011;56792;50.644;17.984;2024-03-22T00:05:12;20.80;;;12.60;;
69588;SDS011;56792;50.644;17.984;2024-03-22T00:07:44;20.00;;;12.70;;
69588;SDS011;56792;50.644;17.984;2024-03-22T00:10:15;20.90;;;12.50;;
69588;SDS011;56792;50.644;17.984;2024-03-22T00:12:45;20.80;;;12.30;;
69588;SDS011;56792;50.644;17.984;2024-03-22T00:15:18;20.70;;;12.70;;
69588;SDS011;56792;50.644;17.984;2024-03-22T00:17:48;19.70;;;12.50;;
69588;SDS011;56792;50.644;17.984;2024-03-22T00:20:18;19.80;;;12.70;;
69588;SDS011;56792;50.644;17.984;2024-03-22T00:22:49;18.50;;;12.10;;
69588;SDS011;56792;50.644;17.984;2024-03-22T00:25:19;23.50;;;14.10;;
69588;SDS011;56792;50.644;17.984;2024-03-22T00:27:50;18.80;;;12.80;;
69588;SDS011;56792;50.644;17.984;2024-03-22T00:30:21;20.40;;;12.40;;
69588;SDS011;56792;50.644;17.984;2024-03-22T00:32:51;23.90;;;13.10;;
69588;SDS011;56792;50.644;17.984;2024-03-22T00:35:21;25.20;;;14.20;;
69588;SDS011;56792;50.644;17.984;2024-03-22T00:37:52;26.80;;;13.90;;
69588;SDS011;56792;50.644;17.984;2024-03-22T00:40:23;22.80;;;13.60;;
69588;SDS011;56792;50.644;17.984;2024-03-22T00:42:53;21.80;;;13.50;;
69588;SDS011;56792;50.644;17.984;2024-03-22T00:45:24;23.60;;;13.10;;
69588;SDS011;56792;50.644;17.984;2024-03-22T00:47:54;21.80;;;12.90;;
69588;SDS011;56792;50.644;17.984;2024-03-22T00:50:25;22.20;;;13.20;;
69588;SDS011;56792;50.644;17.984;2024-03-22T00:52:56;22.10;;;13.60;;
69588;SDS011;56792;50.644;17.984;2024-03-22T00:55:27;22.80;;;13.70;;
69588;SDS011;56792;50.644;17.984;2024-03-22T00:57:57;20.90;;;13.10;;
69588;SDS011;56792;50.644;17.984;2024-03-22T01:00:28;22.90;;;14.10;;
69588;SDS011;56792;50.644;17.984;2024-03-22T01:02:58;20.50;;;13.40;;
69588;SDS011;56792;50.644;17.984;2024-03-22T01:05:29;22.20;;;13.50;;
69588;SDS011;56792;50.644;17.984;2024-03-22T01:07:59;23.90;;;13.80;;
69588;SDS011;56792;50.644;17.984;2024-03-22T01:10:30;23.80;;;13.70;;
69588;SDS011;56792;50.644;17.984;2024-03-22T01:13:01;21.20;;;13.30;;
69588;SDS011;56792;50.644;17.984;2024-03-22T01:15:32;23.10;;;13.50;;
69588;SDS011;56792;50.644;17.984;2024-03-22T01:18:02;21.10;;;13.50;;
69588;SDS011;56792;50.644;17.984;2024-03-22T01:20:34;21.60;;;13.20;;
69588;SDS011;56792;50.644;17.984;2024-03-22T01:23:04;19.60;;;12.20;;
69588;SDS011;56792;50.644;17.984;2024-03-22T01:25:35;20.20;;;13.20;;
69588;SDS011;56792;50.644;17.984;2024-03-22T01:28:06;20.90;;;13.50;;
69588;SDS011;56792;50.644;17.984;2024-03-22T01:30:36;21.30;;;13.50;;
69588;SDS011;56792;50.644;17.984;2024-03-22T01:33:07;20.70;;;13.10;;
69588;SDS011;56792;50.644;17.984;2024-03-22T01:35:37;21.30;;;13.60;;
69588;SDS011;56792;50.644;17.984;2024-03-22T01:38:08;23.00;;;13.80;;
69588;SDS011;56792;50.644;17.984;2024-03-22T01:40:38;23.00;;;14.20;;
69588;SDS011;56792;50.644;17.984;2024-03-22T01:43:09;21.00;;;13.30;;
69588;SDS011;56792;50.644;17.984;2024-03-22T01:45:40;21.10;;;12.90;;
69588;SDS011;56792;50.644;17.984;2024-03-22T01:48:10;22.00;;;13.70;;
69588;SDS011;56792;50.644;17.984;2024-03-22T01:50:42;22.40;;;12.80;;
69588;SDS011;56792;50.644;17.984;2024-03-22T01:53:13;20.30;;;12.40;;
69588;SDS011;56792;50.644;17.984;2024-03-22T01:55:44;22.40;;;13.90;;
69588;SDS011;56792;50.644;17.984;2024-03-22T01:58:14;19.20;;;12.70;;
69588;SDS011;56792;50.644;17.984;2024-03-22T02:00:45;20.90;;;12.60;;
69588;SDS011;56792;50.644;17.984;2024-03-22T02:03:16;20.30;;;12.40;;
69588;SDS011;56792;50.644;17.984;2024-03-22T02:05:46;21.40;;;12.60;;
69588;SDS011;56792;50.644;17.984;2024-03-22T02:08:16;18.00;;;11.60;;
69588;SDS011;56792;50.644;17.984;2024-03-22T02:10:47;19.30;;;11.30;;
69588;SDS011;56792;50.644;17.984;2024-03-22T02:13:18;18.90;;;11.00;;
69588;SDS011;56792;50.644;17.984;2024-03-22T02:15:48;16.00;;;10.90;;
69588;SDS011;56792;50.644;17.984;2024-03-22T02:18:19;16.20;;;10.30;;
69588;SDS011;56792;50.644;17.984;2024-03-22T02:20:49;17.70;;;9.80;;
69588;SDS011;56792;50.644;17.984;2024-03-22T02:23:27;16.30;;;9.30;;
69588;SDS011;56792;50.644;17.984;2024-03-22T02:26:01;17.60;;;9.30;;
69588;SDS011;56792;50.644;17.984;2024-03-22T02:28:32;15.60;;;9.10;;
69588;SDS011;56792;50.644;17.984;2024-03-22T02:31:04;17.00;;;9.00;;
69588;SDS011;56792;50.644;17.984;2024-03-22T02:33:35;14.40;;;8.80;;
69588;SDS011;56792;50.644;17.984;2024-03-22T02:36:06;13.70;;;8.40;;
69588;SDS011;56792;50.644;17.984;2024-03-22T02:38:37;13.60;;;7.50;;
69588;SDS011;56792;50.644;17.984;2024-03-22T02:41:07;14.90;;;7.60;;
69588;SDS011;56792;50.644;17.984;2024-03-22T02:43:38;14.50;;;7.30;;
69588;SDS011;56792;50.644;17.984;2024-03-22T02:46:08;12.40;;;7.50;;
69588;SDS011;56792;50.644;17.984;2024-03-22T02:48:39;11.60;;;7.20;;
69588;SDS011;56792;50.644;17.984;2024-03-22T02:51:09;10.50;;;6.50;;
69588;SDS011;56792;50.644;17.984;2024-03-22T02:53:40;15.50;;;7.20;;
69588;SDS011;56792;50.644;17.984;2024-03-22T02:56:10;13.80;;;7.20;;
69588;SDS011;56792;50.644;17.984;2024-03-22T02:58:41;10.70;;;6.20;;
69588;SDS011;56792;50.644;17.984;2024-03-22T03:01:11;12.90;;;7.00;;
69588;SDS011;56792;50.644;17.984;2024-03-22T03:03:42;11.60;;;6.30;;
69588;SDS011;56792;50.644;17.984;2024-03-22T03:06:12;15.60;;;7.30;;
69588;SDS011;56792;50.644;17.984;2024-03-22T03:08:44;11.50;;;6.60;;
69588;SDS011;56792;50.644;17.984;2024-03-22T03:11:16;14.00;;;7.30;;
69588;SDS011;56792;50.644;17.984;2024-03-22T03:13:47;13.90;;;7.70;;
69588;SDS011;56792;50.644;17.984;2024-03-22T03:16:17;12.70;;;7.00;;
69588;SDS011;56792;50.644;17.984;2024-03-22T03:18:48;12.00;;;7.10;;
69588;SDS011;56792;50.644;17.984;2024-03-22T03:21:18;10.30;;;6.60;;
69588;SDS011;56792;50.644;17.984;2024-03-22T03:23:49;9.90;;;6.00;;
69588;SDS011;56792;50.644;17.984;2024-03-22T03:26:19;9.50;;;6.50;;
69588;SDS011;56792;50.644;17.984;2024-03-22T03:28:50;9.70;;;5.90;;
69588;SDS011;56792;50.644;17.984;2024-03-22T03:31:22;10.40;;;6.50;;
69588;SDS011;56792;50.644;17.984;2024-03-22T03:33:53;9.40;;;5.60;;
69588;SDS011;56792;50.644;17.984;2024-03-22T03:36:23;10.30;;;5.70;;
69588;SDS011;56792;50.644;17.984;2024-03-22T03:38:54;10.00;;;6.10;;
69588;SDS011;56792;50.644;17.984;2024-03-22T03:41:24;10.30;;;5.90;;
69588;SDS011;56792;50.644;17.984;2024-03-22T03:43:55;10.70;;;6.60;;
69588;SDS011;56792;50.644;17.984;2024-03-22T03:46:25;10.50;;;6.40;;
69588;SDS011;56792;50.644;17.984;2024-03-22T03:48:56;10.60;;;6.30;;
69588;SDS011;56792;50.644;17.984;2024-03-22T03:51:26;10.00;;;6.00;;
69588;SDS011;56792;50.644;17.984;2024-03-22T03:53:57;8.60;;;6.00;;
69588;SDS011;56792;50.644;17.984;2024-03-22T03:56:27;9.60;;;5.90;;
69588;SDS011;56792;50.644;17.984;2024-03-22T03:58:58;9.80;;;6.60;;
69588;SDS011;56792;50.644;17.984;2024-03-22T04:01:28;9.10;;;5.30;;
69588;SDS011;56792;50.644;17.984;2024-03-22T04:03:59;10.40;;;6.30;;
69588;SDS011;56792;50.644;17.984;2024-03-22T04:06:29;9.90;;;6.60;;
69588;SDS011;56792;50.644;17.984;2024-03-22T04:09:00;10.60;;;6.30;;
69588;SDS011;56792;50.644;17.984;2024-03-22T04:11:30;10.10;;;6.50;;
69588;SDS011;56792;50.644;17.984;2024-03-22T04:14:01;9.40;;;5.80;;
69588;SDS011;56792;50.644;17.984;2024-03-22T04:16:32;9.60;;;6.00;;
69588;SDS011;56792;50.644;17.984;2024-03-22T04:19:02;11.00;;;5.90;;
69588;SDS011;56792;50.644;17.984;2024-03-22T04:21:33;10.50;;;6.00;;
69588;SDS011;56792;50.644;17.984;2024-03-22T04:24:03;9.10;;;6.00;;
69588;SDS011;56792;50.644;17.984;2024-03-22T04:26:34;10.90;;;6.00;;
69588;SDS011;56792;50.644;17.984;2024-03-22T04:29:05;10.80;;;6.10;;
69588;SDS011;56792;50.644;17.984;2024-03-22T04:31:35;9.20;;;5.80;;
69588;SDS011;56792;50.644;17.984;2024-03-22T04:34:06;9.70;;;5.60;;
69588;SDS011;56792;50.644;17.984;2024-03-22T04:36:38;10.30;;;6.80;;
69588;SDS011;56792;50.644;17.984;2024-03-22T04:39:08;9.00;;;5.60;;
69588;SDS011;56792;50.644;17.984;2024-03-22T04:41:40;9.60;;;6.30;;
69588;SDS011;56792;50.644;17.984;2024-03-22T04:44:10;9.60;;;5.60;;
69588;SDS011;56792;50.644;17.984;2024-03-22T04:46:41;10.00;;;5.70;;
69588;SDS011;56792;50.644;17.984;2024-03-22T04:49:12;9.20;;;6.10;;
69588;SDS011;56792;50.644;17.984;2024-03-22T04:51:43;11.00;;;6.50;;
69588;SDS011;56792;50.644;17.984;2024-03-22T04:54:13;11.70;;;6.70;;
69588;SDS011;56792;50.644;17.984;2024-03-22T04:56:44;9.60;;;6.00;;
69588;SDS011;56792;50.644;17.984;2024-03-22T04:59:14;11.10;;;6.70;;
69588;SDS011;56792;50.644;17.984;2024-03-22T05:01:45;11.80;;;6.20;;
69588;SDS011;56792;50.644;17.984;2024-03-22T05:04:15;10.80;;;6.60;;
69588;SDS011;56792;50.644;17.984;2024-03-22T05:06:46;11.00;;;6.50;;
69588;SDS011;56792;50.644;17.984;2024-03-22T05:09:16;10.90;;;6.70;;
69588;SDS011;56792;50.644;17.984;2024-03-22T05:11:47;13.00;;;7.40;;
69588;SDS011;56792;50.644;17.984;2024-03-22T05:14:19;12.10;;;7.20;;
69588;SDS011;56792;50.644;17.984;2024-03-22T05:16:50;13.00;;;7.00;;
69588;SDS011;56792;50.644;17.984;2024-03-22T05:19:20;12.10;;;7.70;;
69588;SDS011;56792;50.644;17.984;2024-03-22T05:21:51;13.00;;;7.70;;
69588;SDS011;56792;50.644;17.984;2024-03-22T05:24:22;13.00;;;7.70;;
69588;SDS011;56792;50.644;17.984;2024-03-22T05:26:52;14.40;;;7.90;;
69588;SDS011;56792;50.644;17.984;2024-03-22T05:29:23;13.60;;;8.40;;
69588;SDS011;56792;50.644;17.984;2024-03-22T05:31:54;14.40;;;8.10;;
69588;SDS011;56792;50.644;17.984;2024-03-22T05:34:25;14.10;;;8.10;;
69588;SDS011;56792;50.644;17.984;2024-03-22T05:36:55;14.70;;;8.90;;
69588;SDS011;56792;50.644;17.984;2024-03-22T05:39:26;15.30;;;8.70;;
69588;SDS011;56792;50.644;17.984;2024-03-22T05:41:57;15.20;;;8.90;;
69588;SDS011;56792;50.644;17.984;2024-03-22T05:44:27;14.70;;;8.80;;
69588;SDS011;56792;50.644;17.984;2024-03-22T05:46:58;17.80;;;9.30;;
69588;SDS011;56792;50.644;17.984;2024-03-22T05:49:29;18.70;;;9.50;;
69588;SDS011;56792;50.644;17.984;2024-03-22T05:51:59;18.20;;;8.90;;
69588;SDS011;56792;50.644;17.984;2024-03-22T05:54:30;16.60;;;9.50;;
69588;SDS011;56792;50.644;17.984;2024-03-22T05:57:00;16.20;;;9.50;;
69588;SDS011;56792;50.644;17.984;2024-03-22T05:59:33;16.50;;;9.00;;
69588;SDS011;56792;50.644;17.984;2024-03-22T06:02:03;17.50;;;9.60;;
69588;SDS011;56792;50.644;17.984;2024-03-22T06:04:34;19.70;;;10.90;;
69588;SDS011;56792;50.644;17.984;2024-03-22T06:07:05;19.60;;;11.10;;
69588;SDS011;56792;50.644;17.984;2024-03-22T06:09:35;16.20;;;9.50;;
69588;SDS011;56792;50.644;17.984;2024-03-22T06:12:13;20.90;;;10.40;;
69588;SDS011;56792;50.644;17.984;2024-03-22T06:14:44;19.00;;;9.80;;
69588;SDS011;56792;50.644;17.984;2024-03-22T06:17:16;15.50;;;9.30;;
69588;SDS011;56792;50.644;17.984;2024-03-22T06:19:46;18.80;;;8.90;;
69588;SDS011;56792;50.644;17.984;2024-03-22T06:22:17;17.30;;;8.70;;
69588;SDS011;56792;50.644;17.984;2024-03-22T06:24:47;17.30;;;9.50;;
69588;SDS011;56792;50.644;17.984;2024-03-22T06:27:18;17.80;;;9.40;;
69588;SDS011;56792;50.644;17.984;2024-03-22T06:29:48;17.60;;;9.80;;
69588;SDS011;56792;50.644;17.984;2024-03-22T06:32:19;16.80;;;9.80;;
69588;SDS011;56792;50.644;17.984;2024-03-22T06:34:49;15.80;;;9.20;;
69588;SDS011;56792;50.644;17.984;2024-03-22T06:37:20;20.30;;;10.40;;
69588;SDS011;56792;50.644;17.984;2024-03-22T06:39:50;20.20;;;9.80;;
69588;SDS011;56792;50.644;17.984;2024-03-22T06:42:21;16.50;;;8.70;;
69588;SDS011;56792;50.644;17.984;2024-03-22T06:44:52;16.30;;;9.50;;
69588;SDS011;56792;50.644;17.984;2024-03-22T06:47:22;17.60;;;10.00;;
69588;SDS011;56792;50.644;17.984;2024-03-22T06:49:53;18.60;;;9.70;;
69588;SDS011;56792;50.644;17.984;2024-03-22T06:52:23;18.10;;;10.10;;
69588;SDS011;56792;50.644;17.984;2024-03-22T06:54:54;17.50;;;9.70;;
69588;SDS011;56792;50.644;17.984;2024-03-22T06:57:24;17.90;;;9.80;;
69588;SDS011;56792;50.644;17.984;2024-03-22T06:59:54;21.00;;;10.10;;
69588;SDS011;56792;50.644;17.984;2024-03-22T07:02:25;15.60;;;8.90;;
69588;SDS011;56792;50.644;17.984;2024-03-22T07:04:55;15.10;;;9.50;;
69588;SDS011;56792;50.644;17.984;2024-03-22T07:07:26;15.10;;;8.50;;
69588;SDS011;56792;50.644;17.984;2024-03-22T07:09:57;19.60;;;9.60;;
69588;SDS011;56792;50.644;17.984;2024-03-22T07:12:28;14.70;;;7.80;;
69588;SDS011;56792;50.644;17.984;2024-03-22T07:14:58;19.40;;;10.30;;
69588;SDS011;56792;50.644;17.984;2024-03-22T07:17:30;20.10;;;8.90;;
69588;SDS011;56792;50.644;17.984;2024-03-22T07:20:00;17.90;;;9.90;;
69588;SDS011;56792;50.644;17.984;2024-03-22T07:22:32;16.80;;;8.70;;
69588;SDS011;56792;50.644;17.984;2024-03-22T07:25:02;18.00;;;9.70;;
69588;SDS011;56792;50.644;17.984;2024-03-22T07:27:33;19.30;;;9.50;;
69588;SDS011;56792;50.644;17.984;2024-03-22T07:30:05;14.50;;;8.00;;
69588;SDS011;56792;50.644;17.984;2024-03-22T07:32:36;21.10;;;10.40;;
69588;SDS011;56792;50.644;17.984;2024-03-22T07:35:07;17.30;;;10.40;;
69588;SDS011;56792;50.644;17.984;2024-03-22T07:37:38;17.60;;;9.20;;
69588;SDS011;56792;50.644;17.984;2024-03-22T07:40:10;19.90;;;9.80;;
69588;SDS011;56792;50.644;17.984;2024-03-22T07:42:40;16.30;;;9.20;;
69588;SDS011;56792;50.644;17.984;2024-03-22T07:45:11;16.70;;;9.40;;
69588;SDS011;56792;50.644;17.984;2024-03-22T07:47:41;19.20;;;9.50;;
69588;SDS011;56792;50.644;17.984;2024-03-22T07:50:12;18.00;;;8.80;;
69588;SDS011;56792;50.644;17.984;2024-03-22T07:52:43;16.60;;;8.00;;
69588;SDS011;56792;50.644;17.984;2024-03-22T07:55:14;11.30;;;7.10;;
69588;SDS011;56792;50.644;17.984;2024-03-22T07:57:44;14.10;;;8.10;;
69588;SDS011;56792;50.644;17.984;2024-03-22T08:00:16;12.10;;;6.90;;
69588;SDS011;56792;50.644;17.984;2024-03-22T08:02:47;13.10;;;8.00;;
69588;SDS011;56792;50.644;17.984;2024-03-22T08:05:18;13.10;;;7.50;;
69588;SDS011;56792;50.644;17.984;2024-03-22T08:07:48;12.90;;;7.90;;
69588;SDS011;56792;50.644;17.984;2024-03-22T08:10:19;11.90;;;7.90;;
69588;SDS011;56792;50.644;17.984;2024-03-22T08:12:49;13.40;;;7.90;;
69588;SDS011;56792;50.644;17.984;2024-03-22T08:15:20;14.60;;;7.60;;
69588;SDS011;56792;50.644;17.984;2024-03-22T08:17:51;12.00;;;6.80;;
69588;SDS011;56792;50.644;17.984;2024-03-22T08:20:22;15.70;;;7.80;;
69588;SDS011;56792;50.644;17.984;2024-03-22T08:22:52;12.70;;;6.90;;
69588;SDS011;56792;50.644;17.984;2024-03-22T08:25:23;11.40;;;6.00;;
69588;SDS011;56792;50.644;17.984;2024-03-22T08:27:53;12.00;;;6.40;;
69588;SDS011;56792;50.644;17.984;2024-03-22T08:30:24;9.80;;;6.60;;
69588;SDS011;56792;50.644;17.984;2024-03-22T08:32:54;10.20;;;6.20;;
69588;SDS011;56792;50.644;17.984;2024-03-22T08:35:25;12.90;;;7.00;;
69588;SDS011;56792;50.644;17.984;2024-03-22T08:37:55;9.70;;;5.80;;
69588;SDS011;56792;50.644;17.984;2024-03-22T08:40:26;10.40;;;6.40;;
69588;SDS011;56792;50.644;17.984;2024-03-22T08:42:57;9.90;;;6.80;;
69588;SDS011;56792;50.644;17.984;2024-03-22T08:45:27;11.10;;;6.60;;
69588;SDS011;56792;50.644;17.984;2024-03-22T08:47:57;16.00;;;7.00;;
69588;SDS011;56792;50.644;17.984;2024-03-22T08:50:28;10.60;;;6.40;;
69588;SDS011;56792;50.644;17.984;2024-03-22T08:52:59;10.40;;;7.00;;
69588;SDS011;56792;50.644;17.984;2024-03-22T08:55:31;11.60;;;7.60;;
69588;SDS011;56792;50.644;17.984;2024-03-22T08:58:01;12.30;;;6.80;;
69588;SDS011;56792;50.644;17.984;2024-03-22T09:00:32;11.10;;;6.70;;
69588;SDS011;56792;50.644;17.984;2024-03-22T09:03:02;13.50;;;7.20;;
69588;SDS011;56792;50.644;17.984;2024-03-22T09:05:33;22.50;;;9.00;;
69588;SDS011;56792;50.644;17.984;2024-03-22T09:08:05;13.70;;;7.80;;
69588;SDS011;56792;50.644;17.984;2024-03-22T09:10:36;11.90;;;7.50;;
69588;SDS011;56792;50.644;17.984;2024-03-22T09:13:07;12.80;;;7.80;;
69588;SDS011;56792;50.644;17.984;2024-03-22T09:15:40;13.70;;;8.30;;
69588;SDS011;56792;50.644;17.984;2024-03-22T09:18:10;12.70;;;7.60;;
69588;SDS011;56792;50.644;17.984;2024-03-22T09:20:41;15.00;;;7.20;;
69588;SDS011;56792;50.644;17.984;2024-03-22T09:23:12;11.40;;;6.60;;
69588;SDS011;56792;50.644;17.984;2024-03-22T09:25:42;13.00;;;7.40;;
69588;SDS011;56792;50.644;17.984;2024-03-22T09:28:14;15.30;;;8.80;;
69588;SDS011;56792;50.644;17.984;2024-03-22T09:30:44;14.60;;;8.00;;
69588;SDS011;56792;50.644;17.984;2024-03-22T09:33:15;12.80;;;7.30;;
69588;SDS011;56792;50.644;17.984;2024-03-22T09:35:46;13.10;;;7.50;;
69588;SDS011;56792;50.644;17.984;2024-03-22T09:38:16;13.10;;;7.20;;
69588;SDS011;56792;50.644;17.984;2024-03-22T09:40:47;11.60;;;6.50;;
69588;SDS011;56792;50.644;17.984;2024-03-22T09:43:22;14.40;;;8.80;;
69588;SDS011;56792;50.644;17.984;2024-03-22T09:45:56;11.40;;;7.20;;
69588;SDS011;56792;50.644;17.984;2024-03-22T09:48:27;14.90;;;7.70;;
69588;SDS011;56792;50.644;17.984;2024-03-22T09:51:01;18.00;;;7.60;;
69588;SDS011;56792;50.644;17.984;2024-03-22T09:53:33;13.70;;;7.80;;
69588;SDS011;56792;50.644;17.984;2024-03-22T09:56:05;14.90;;;7.60;;
69588;SDS011;56792;50.644;17.984;2024-03-22T09:58:36;14.60;;;7.80;;
69588;SDS011;56792;50.644;17.984;2024-03-22T10:01:07;12.30;;;7.10;;
69588;SDS011;56792;50.644;17.984;2024-03-22T10:03:38;13.40;;;7.90;;
69588;SDS011;56792;50.644;17.984;2024-03-22T10:06:08;13.70;;;7.90;;
69588;SDS011;56792;50.644;17.984;2024-03-22T10:08:39;11.70;;;7.70;;
69588;SDS011;56792;50.644;17.984;2024-03-22T10:11:09;13.10;;;8.20;;
69588;SDS011;56792;50.644;17.984;2024-03-22T10:13:40;12.10;;;7.30;;
69588;SDS011;56792;50.644;17.984;2024-03-22T10:16:14;10.90;;;7.00;;
69588;SDS011;56792;50.644;17.984;2024-03-22T10:18:47;12.00;;;6.70;;
69588;SDS011;56792;50.644;17.984;2024-03-22T10:21:19;14.00;;;8.40;;
69588;SDS011;56792;50.644;17.984;2024-03-22T10:23:50;14.30;;;7.80;;
69588;SDS011;56792;50.644;17.984;2024-03-22T10:26:22;12.60;;;8.00;;
69588;SDS011;56792;50.644;17.984;2024-03-22T10:28:53;12.50;;;7.40;;
69588;SDS011;56792;50.644;17.984;2024-03-22T10:31:23;11.50;;;7.60;;
69588;SDS011;56792;50.644;17.984;2024-03-22T10:33:56;11.30;;;7.60;;
69588;SDS011;56792;50.644;17.984;2024-03-22T10:36:28;10.80;;;7.70;;
69588;SDS011;56792;50.644;17.984;2024-03-22T10:38:59;12.80;;;8.70;;
69588;SDS011;56792;50.644;17.984;2024-03-22T10:41:32;12.10;;;7.60;;
69588;SDS011;56792;50.644;17.984;2024-03-22T10:44:02;10.70;;;7.30;;
69588;SDS011;56792;50.644;17.984;2024-03-22T10:46:36;11.80;;;7.80;;
69588;SDS011;56792;50.644;17.984;2024-03-22T10:49:15;18.80;;;7.50;;
69588;SDS011;56792;50.644;17.984;2024-03-22T10:51:48;11.10;;;7.30;;
69588;SDS011;56792;50.644;17.984;2024-03-22T10:54:23;10.30;;;6.90;;
69588;SDS011;56792;50.644;17.984;2024-03-22T10:56:58;10.50;;;7.80;;
69588;SDS011;56792;50.644;17.984;2024-03-22T10:59:34;11.90;;;7.60;;
69588;SDS011;56792;50.644;17.984;2024-03-22T11:02:05;10.10;;;6.80;;
69588;SDS011;56792;50.644;17.984;2024-03-22T11:04:39;11.00;;;7.00;;
69588;SDS011;56792;50.644;17.984;2024-03-22T11:07:09;11.40;;;8.10;;
69588;SDS011;56792;50.644;17.984;2024-03-22T11:09:57;11.70;;;6.90;;
69588;SDS011;56792;50.644;17.984;2024-03-22T11:12:30;9.70;;;6.10;;
69588;SDS011;56792;50.644;17.984;2024-03-22T11:15:01;32.40;;;17.60;;
69588;SDS011;56792;50.644;17.984;2024-03-22T11:17:32;12.20;;;7.70;;
69588;SDS011;56792;50.644;17.984;2024-03-22T11:20:03;11.00;;;6.70;;
69588;SDS011;56792;50.644;17.984;2024-03-22T11:22:35;10.40;;;6.50;;
69588;SDS011;56792;50.644;17.984;2024-03-22T11:25:06;11.20;;;6.70;;
69588;SDS011;56792;50.644;17.984;2024-03-22T11:27:37;10.70;;;6.00;;
69588;SDS011;56792;50.644;17.984;2024-03-22T11:30:09;9.10;;;6.20;;
69588;SDS011;56792;50.644;17.984;2024-03-22T11:32:40;9.30;;;5.90;;
69588;SDS011;56792;50.644;17.984;2024-03-22T11:35:16;8.80;;;6.40;;
69588;SDS011;56792;50.644;17.984;2024-03-22T11:37:46;9.60;;;6.40;;
69588;SDS011;56792;50.644;17.984;2024-03-22T11:40:18;9.00;;;6.40;;
69588;SDS011;56792;50.644;17.984;2024-03-22T11:42:52;10.10;;;6.70;;
69588;SDS011;56792;50.644;17.984;2024-03-22T11:45:26;8.70;;;6.50;;
69588;SDS011;56792;50.644;17.984;2024-03-22T11:48:03;7.60;;;6.50;;
69588;SDS011;56792;50.644;17.984;2024-03-22T11:50:35;8.50;;;6.70;;
69588;SDS011;56792;50.644;17.984;2024-03-22T11:53:07;10.50;;;7.00;;
69588;SDS011;56792;50.644;17.984;2024-03-22T11:55:38;10.00;;;6.50;;
69588;SDS011;56792;50.644;17.984;2024-03-22T11:58:11;10.80;;;6.20;;
69588;SDS011;56792;50.644;17.984;2024-03-22T12:00:41;9.40;;;6.50;;
69588;SDS011;56792;50.644;17.984;2024-03-22T12:03:12;9.20;;;5.70;;
69588;SDS011;56792;50.644;17.984;2024-03-22T12:05:43;12.70;;;6.90;;
69588;SDS011;56792;50.644;17.984;2024-03-22T12:08:13;8.30;;;5.70;;
69588;SDS011;56792;50.644;17.984;2024-03-22T12:10:44;8.50;;;5.80;;
69588;SDS011;56792;50.644;17.984;2024-03-22T12:13:16;8.70;;;6.10;;
69588;SDS011;56792;50.644;17.984;2024-03-22T12:15:46;9.30;;;6.50;;
69588;SDS011;56792;50.644;17.984;2024-03-22T12:18:17;9.80;;;6.10;;
69588;SDS011;56792;50.644;17.984;2024-03-22T12:20:47;9.70;;;6.20;;
69588;SDS011;56792;50.644;17.984;2024-03-22T12:23:18;10.80;;;6.60;;
69588;SDS011;56792;50.644;17.984;2024-03-22T12:25:48;8.30;;;6.20;;
69588;SDS011;56792;50.644;17.984;2024-03-22T12:28:20;9.70;;;6.70;;
69588;SDS011;56792;50.644;17.984;2024-03-22T12:30:51;9.20;;;6.40;;
69588;SDS011;56792;50.644;17.984;2024-03-22T12:33:22;9.00;;;5.60;;
69588;SDS011;56792;50.644;17.984;2024-03-22T12:35:52;7.60;;;5.50;;
69588;SDS011;56792;50.644;17.984;2024-03-22T12:38:22;8.30;;;5.90;;
69588;SDS011;56792;50.644;17.984;2024-03-22T12:40:53;8.00;;;6.20;;
69588;SDS011;56792;50.644;17.984;2024-03-22T12:43:24;9.30;;;6.30;;
69588;SDS011;56792;50.644;17.984;2024-03-22T12:45:54;7.20;;;5.90;;
69588;SDS011;56792;50.644;17.984;2024-03-22T12:48:25;7.70;;;5.90;;
69588;SDS011;56792;50.644;17.984;2024-03-22T12:50:55;10.90;;;6.60;;
69588;SDS011;56792;50.644;17.984;2024-03-22T12:53:26;8.60;;;6.90;;
69588;SDS011;56792;50.644;17.984;2024-03-22T12:55:56;7.50;;;5.80;;
69588;SDS011;56792;50.644;17.984;2024-03-22T12:58:26;7.30;;;5.40;;
69588;SDS011;56792;50.644;17.984;2024-03-22T13:00:57;8.20;;;6.10;;
69588;SDS011;56792;50.644;17.984;2024-03-22T13:03:29;11.20;;;6.80;;
69588;SDS011;56792;50.644;17.984;2024-03-22T13:06:00;8.60;;;6.00;;
69588;SDS011;56792;50.644;17.984;2024-03-22T13:08:31;7.90;;;5.80;;
69588;SDS011;56792;50.644;17.984;2024-03-22T13:11:01;11.20;;;6.60;;
69588;SDS011;56792;50.644;17.984;2024-03-22T13:13:32;8.20;;;6.40;;
69588;SDS011;56792;50.644;17.984;2024-03-22T13:16:03;8.50;;;6.20;;
69588;SDS011;56792;50.644;17.984;2024-03-22T13:18:34;6.70;;;5.70;;
69588;SDS011;56792;50.644;17.984;2024-03-22T13:21:05;8.20;;;5.70;;
69588;SDS011;56792;50.644;17.984;2024-03-22T13:23:36;10.00;;;5.40;;
69588;SDS011;56792;50.644;17.984;2024-03-22T13:26:07;6.90;;;5.10;;
69588;SDS011;56792;50.644;17.984;2024-03-22T13:28:37;10.70;;;6.00;;
69588;SDS011;56792;50.644;17.984;2024-03-22T13:31:09;11.40;;;6.30;;
69588;SDS011;56792;50.644;17.984;2024-03-22T13:33:40;8.90;;;6.00;;
69588;SDS011;56792;50.644;17.984;2024-03-22T13:36:10;8.30;;;5.60;;
69588;SDS011;56792;50.644;17.984;2024-03-22T13:38:41;9.00;;;5.60;;
69588;SDS011;56792;50.644;17.984;2024-03-22T13:41:12;11.40;;;8.90;;
69588;SDS011;56792;50.644;17.984;2024-03-22T13:43:43;10.70;;;7.60;;
69588;SDS011;56792;50.644;17.984;2024-03-22T13:46:13;11.10;;;6.40;;
69588;SDS011;56792;50.644;17.984;2024-03-22T13:48:45;9.90;;;6.50;;
69588;SDS011;56792;50.644;17.984;2024-03-22T13:51:15;8.70;;;5.80;;
69588;SDS011;56792;50.644;17.984;2024-03-22T13:53:46;7.70;;;5.50;;
69588;SDS011;56792;50.644;17.984;2024-03-22T13:56:16;6.90;;;5.20;;
69588;SDS011;56792;50.644;17.984;2024-03-22T13:58:47;7.30;;;4.80;;
69588;SDS011;56792;50.644;17.984;2024-03-22T14:01:17;7.70;;;6.10;;
69588;SDS011;56792;50.644;17.984;2024-03-22T14:03:48;8.70;;;6.10;;
69588;SDS011;56792;50.644;17.984;2024-03-22T14:06:18;7.40;;;5.50;;
69588;SDS011;56792;50.644;17.984;2024-03-22T14:08:49;10.90;;;6.90;;
69588;SDS011;56792;50.644;17.984;2024-03-22T14:11:22;7.50;;;5.90;;
69588;SDS011;56792;50.644;17.984;2024-03-22T14:13:52;10.30;;;6.90;;
69588;SDS011;56792;50.644;17.984;2024-03-22T14:16:23;7.00;;;5.60;;
69588;SDS011;56792;50.644;17.984;2024-03-22T14:18:54;6.10;;;4.70;;
69588;SDS011;56792;50.644;17.984;2024-03-22T14:21:24;7.40;;;5.70;;
69588;SDS011;56792;50.644;17.984;2024-03-22T14:23:55;6.90;;;4.80;;
69588;SDS011;56792;50.644;17.984;2024-03-22T14:26:25;6.00;;;5.30;;
69588;SDS011;56792;50.644;17.984;2024-03-22T14:28:56;7.40;;;4.90;;
69588;SDS011;56792;50.644;17.984;2024-03-22T14:31:26;9.80;;;5.50;;
69588;SDS011;56792;50.644;17.984;2024-03-22T14:33:57;8.00;;;5.00;;
69588;SDS011;56792;50.644;17.984;2024-03-22T14:36:27;9.30;;;5.20;;
69588;SDS011;56792;50.644;17.984;2024-03-22T14:38:58;7.00;;;5.20;;
69588;SDS011;56792;50.644;17.984;2024-03-22T14:41:29;7.80;;;5.00;;